AHDDZ05 EBAW-EGLL
Flight info
| Callsign | AHDDZ05 |
|---|---|
| Flight time | N/A |
| Altitude | 18000 |
| Route | NIK L179 KEGIT/N0358F240 L608 LOGAN |
| Aircraft | A20N/M-SDE2E3FGHIRWXY/LB1 |
Departure
| Time | 2026-04-22 07:40 |
|---|---|
| Airport | Antwerp International Airport (Deurne) (EBAW) |
Arrival
| Time | N/A |
|---|---|
| Airport | London Heathrow Airport (EGLL) |
| Time | Latitude | Longitude | Altitude | Speed | Heading |
|---|---|---|---|---|---|
| 2026-04-22 07:19 | 51.18907 | 4.45273 | 38 ft | 0 kts | 329° |
| 2026-04-22 07:25 | 51.18886 | 4.45295 | 36 ft | 4 kts | 304° |
| 2026-04-22 07:26 | 51.18881 | 4.45339 | 37 ft | 4 kts | 242° |
| 2026-04-22 07:26 | 51.18903 | 4.45369 | 37 ft | 4 kts | 202° |
| 2026-04-22 07:26 | 51.18931 | 4.45381 | 37 ft | 4 kts | 184° |
| 2026-04-22 07:26 | 51.18956 | 4.45398 | 35 ft | 4 kts | 267° |
| 2026-04-22 07:27 | 51.18942 | 4.45423 | 34 ft | 0 kts | 36° |
| 2026-04-22 07:36 | 51.18977 | 4.45462 | 38 ft | 14 kts | 34° |
| 2026-04-22 07:36 | 51.19032 | 4.45561 | 38 ft | 2 kts | 36° |
| 2026-04-22 07:36 | 51.19051 | 4.45589 | 38 ft | 0 kts | 52° |
| 2026-04-22 07:37 | 51.19051 | 4.45590 | 38 ft | 1 kts | 52° |
| 2026-04-22 07:37 | 51.19052 | 4.45592 | 38 ft | 0 kts | 52° |
| 2026-04-22 07:37 | 51.19082 | 4.45654 | 39 ft | 13 kts | 52° |
| 2026-04-22 07:38 | 51.19119 | 4.45742 | 41 ft | 12 kts | 94° |
| 2026-04-22 07:38 | 51.19113 | 4.45805 | 41 ft | 0 kts | 101° |
| 2026-04-22 07:39 | 51.19113 | 4.45808 | 41 ft | 4 kts | 101° |
| 2026-04-22 07:39 | 51.18984 | 4.46310 | 41 ft | 94 kts | 112° |
| 2026-04-22 07:39 | 51.18709 | 4.47382 | 90 ft | 147 kts | 109° |
| 2026-04-22 07:40 | 51.18411 | 4.48998 | 665 ft | 166 kts | 105° |
| 2026-04-22 07:40 | 51.18040 | 4.50806 | 1504 ft | 182 kts | 102° |
| 2026-04-22 07:40 | 51.17875 | 4.52640 | 3033 ft | 156 kts | 91° |
| 2026-04-22 07:40 | 51.17966 | 4.54314 | 4308 ft | 153 kts | 79° |
| 2026-04-22 07:41 | 51.18311 | 4.55980 | 5254 ft | 164 kts | 67° |
| 2026-04-22 07:41 | 51.18921 | 4.57577 | 6210 ft | 177 kts | 57° |
| 2026-04-22 07:41 | 51.19787 | 4.59044 | 7181 ft | 185 kts | 45° |
| 2026-04-22 07:41 | 51.20873 | 4.60314 | 7841 ft | 215 kts | 36° |
| 2026-04-22 07:42 | 51.22302 | 4.61494 | 8388 ft | 247 kts | 30° |
| 2026-04-22 07:42 | 51.23746 | 4.63261 | 8351 ft | 290 kts | 52° |
| 2026-04-22 07:42 | 51.24760 | 4.66337 | 7966 ft | 340 kts | 75° |
| 2026-04-22 07:42 | 51.25003 | 4.70330 | 7602 ft | 384 kts | 94° |
| 2026-04-22 07:43 | 51.24556 | 4.74604 | 8484 ft | 383 kts | 100° |
| 2026-04-22 07:43 | 51.24046 | 4.78736 | 9904 ft | 379 kts | 100° |
| 2026-04-22 07:43 | 51.23533 | 4.82885 | 10934 ft | 382 kts | 100° |
| 2026-04-22 07:43 | 51.23018 | 4.87049 | 12018 ft | 381 kts | 100° |
| 2026-04-22 07:44 | 51.22310 | 4.91157 | 12913 ft | 392 kts | 109° |
| 2026-04-22 07:44 | 51.19177 | 5.03147 | 15025 ft | 412 kts | 111° |
| 2026-04-22 07:45 | 51.18053 | 5.07368 | 15995 ft | 415 kts | 111° |
| 2026-04-22 07:45 | 51.16919 | 5.11628 | 16882 ft | 420 kts | 111° |
| 2026-04-22 07:46 | 51.13404 | 5.24867 | 19364 ft | 435 kts | 111° |
| 2026-04-22 07:46 | 51.12221 | 5.29327 | 20129 ft | 439 kts | 110° |
| 2026-04-22 07:46 | 51.11067 | 5.33674 | 20537 ft | 419 kts | 110° |
| 2026-04-22 07:46 | 51.09950 | 5.37891 | 19607 ft | 414 kts | 110° |
| 2026-04-22 07:47 | 51.08814 | 5.42215 | 17656 ft | 436 kts | 110° |
| 2026-04-22 07:47 | 51.07660 | 5.46619 | 16806 ft | 427 kts | 110° |
| 2026-04-22 07:47 | 51.06531 | 5.50919 | 16005 ft | 417 kts | 110° |
| 2026-04-22 07:47 | 51.05420 | 5.55143 | 15106 ft | 411 kts | 111° |
| 2026-04-22 07:48 | 51.04321 | 5.59317 | 14259 ft | 406 kts | 111° |
| 2026-04-22 07:48 | 51.03298 | 5.63203 | 15270 ft | 325 kts | 110° |
| 2026-04-22 07:48 | 51.02621 | 5.65899 | 18141 ft | 217 kts | 107° |
| 2026-04-22 07:48 | 51.02150 | 5.67940 | 19246 ft | 190 kts | 104° |
| 2026-04-22 07:49 | 51.01746 | 5.70048 | 19432 ft | 214 kts | 101° |
| 2026-04-22 07:49 | 51.01359 | 5.72605 | 18940 ft | 267 kts | 99° |
| 2026-04-22 07:49 | 51.00958 | 5.75901 | 17369 ft | 344 kts | 98° |
| 2026-04-22 07:49 | 51.00530 | 5.80099 | 14885 ft | 441 kts | 97° |
| 2026-04-22 07:50 | 51.00097 | 5.85007 | 15710 ft | 439 kts | 94° |